Time;durP1;ratioP1;P1;durP2;ratioP2;P2;SDS_P1;SDS_P2;PMS_P1;PMS_P2;Temp;Humidity;BMP_temperature;BMP_pressure;BME280_temperature;BME280_humidity;BME280_pressure;Samples;Min_cycle;Max_cycle;Signal;HPM_P1;HPM_P2
2023/07/22 00:01:33;;;;;;;16.00;8.05;;;;;;;-143.49;100.00;65027.28;5092997;28;20031;-71
2023/07/22 00:03:59;;;;;;;23.52;8.75;;;;;;;-143.49;100.00;65027.28;5093091;28;20032;-71
2023/07/22 00:06:24;;;;;;;18.92;8.75;;;;;;;-143.49;100.00;65027.28;5074831;28;20039;-71
2023/07/22 00:08:50;;;;;;;17.33;8.95;;;;;;;-143.49;100.00;65027.28;5092770;28;20059;-71
2023/07/22 00:11:15;;;;;;;19.55;9.57;;;;;;;-143.49;100.00;65027.28;5093086;28;20031;-71
2023/07/22 00:13:43;;;;;;;19.30;9.90;;;;;;;-143.49;100.00;65027.28;5093022;28;20390;-71
2023/07/22 00:16:10;;;;;;;20.80;9.88;;;;;;;-143.49;100.00;65027.28;5092908;28;20425;-72
2023/07/22 00:18:36;;;;;;;19.48;10.10;;;;;;;-143.49;100.00;65027.28;5092924;28;20119;-72
2023/07/22 00:21:02;;;;;;;20.15;10.00;;;;;;;-143.49;100.00;65027.28;5093007;28;20059;-72
2023/07/22 00:23:27;;;;;;;20.90;10.73;;;;;;;-143.49;100.00;65027.28;5093085;28;20020;-71
2023/07/22 00:25:52;;;;;;;20.48;10.48;;;;;;;-143.49;100.00;65027.28;5092896;28;20028;-71
2023/07/22 00:28:18;;;;;;;21.75;10.73;;;;;;;-143.49;100.00;65027.28;5092888;28;20016;-71
2023/07/22 00:30:43;;;;;;;21.98;11.43;;;;;;;-143.49;100.00;65027.28;5074621;28;20028;-71
2023/07/22 00:33:09;;;;;;;23.10;11.65;;;;;;;-143.49;100.00;65027.28;5092916;28;20032;-71
2023/07/22 00:35:35;;;;;;;21.98;11.50;;;;;;;-143.49;100.00;65027.28;5092827;28;20493;-72
2023/07/22 00:38:01;;;;;;;23.33;11.68;;;;;;;-143.49;100.00;65027.28;5074445;28;20098;-72
2023/07/22 00:40:26;;;;;;;21.95;11.10;;;;;;;-143.49;100.00;65027.28;5092631;28;20150;-71
2023/07/22 00:42:51;;;;;;;26.45;12.15;;;;;;;-143.49;100.00;65027.28;5092769;28;20107;-70
2023/07/22 00:45:17;;;;;;;23.58;12.07;;;;;;;-143.49;100.00;65027.28;5092944;28;20153;-71
2023/07/22 00:47:44;;;;;;;22.90;11.65;;;;;;;-143.49;100.00;65027.28;5077755;28;20027;-70
2023/07/22 00:50:09;;;;;;;23.65;12.68;;;;;;;-143.49;100.00;65027.28;5096427;28;20495;-70
2023/07/22 00:52:35;;;;;;;22.20;12.13;;;;;;;-143.49;100.00;65027.28;5096394;28;20035;-71
2023/07/22 00:55:01;;;;;;;25.33;13.10;;;;;;;-143.49;100.00;65027.28;5077954;28;20023;-71
2023/07/22 00:57:26;;;;;;;29.13;12.45;;;;;;;-143.49;100.00;65027.28;5096166;28;20020;-71
2023/07/22 00:59:52;;;;;;;28.05;12.88;;;;;;;-143.49;100.00;65027.28;5095996;28;20035;-71
2023/07/22 01:02:19;;;;;;;28.23;13.75;;;;;;;-143.49;100.00;65027.28;5096019;28;20387;-71
2023/07/22 01:04:45;;;;;;;29.38;13.38;;;;;;;-143.49;100.00;65027.28;5077817;28;20025;-71
2023/07/22 01:07:10;;;;;;;30.98;13.30;;;;;;;-143.49;100.00;65027.28;5095999;28;20111;-71
2023/07/22 01:09:40;;;;;;;27.13;12.68;;;;;;;-143.49;100.00;65027.28;5095951;28;20089;-71
2023/07/22 01:12:07;;;;;;;29.08;13.88;;;;;;;-143.49;100.00;65027.28;5095909;28;20427;-71
2023/07/22 01:14:41;;;;;;;27.08;13.07;;;;;;;-143.49;100.00;65027.28;5095947;28;20102;-71
2023/07/22 01:17:09;;;;;;;27.30;13.57;;;;;;;-143.49;100.00;65027.28;5095943;28;20425;-71
2023/07/22 01:19:35;;;;;;;24.63;12.82;;;;;;;-143.49;100.00;65027.28;5095703;28;20361;-71
2023/07/22 01:22:02;;;;;;;26.02;13.10;;;;;;;-143.49;100.00;65027.28;5095826;28;20028;-71
2023/07/22 01:24:29;;;;;;;29.05;13.88;;;;;;;-143.49;100.00;65027.28;5095604;28;20024;-72
2023/07/22 01:26:54;;;;;;;26.48;13.35;;;;;;;-143.49;100.00;65027.28;5095663;28;20016;-70
2023/07/22 01:29:24;;;;;;;24.95;13.60;;;;;;;-143.49;100.00;65027.28;5095565;28;20035;-70
2023/07/22 01:31:52;;;;;;;29.50;13.75;;;;;;;-143.49;100.00;65027.28;5095486;28;20387;-71
2023/07/22 01:34:18;;;;;;;28.38;13.85;;;;;;;-143.49;100.00;65027.28;5095518;28;20027;-71
2023/07/22 01:36:45;;;;;;;26.75;13.35;;;;;;;-143.49;100.00;65027.28;5095412;28;20024;-71
2023/07/22 01:39:11;;;;;;;32.30;14.43;;;;;;;-143.49;100.00;65027.28;5077081;28;20106;-71
2023/07/22 01:41:37;;;;;;;28.98;13.50;;;;;;;-143.49;100.00;65027.28;5077624;28;20115;-71
2023/07/22 01:44:02;;;;;;;30.02;13.48;;;;;;;-143.49;100.00;65027.28;5095294;28;20023;-70
2023/07/22 01:46:27;;;;;;;30.35;13.65;;;;;;;-143.49;100.00;65027.28;5095430;28;20016;-70
2023/07/22 01:48:53;;;;;;;25.77;13.43;;;;;;;-143.49;100.00;65027.28;5102729;28;20434;-71
2023/07/22 01:51:18;;;;;;;26.20;13.13;;;;;;;-143.49;100.00;65027.28;5087855;28;20114;-70
2023/07/22 01:53:43;;;;;;;27.05;13.38;;;;;;;-143.49;100.00;65027.28;5087315;28;20050;-70
2023/07/22 01:56:09;;;;;;;29.88;13.55;;;;;;;-143.49;100.00;65027.28;5106870;28;20027;-71
2023/07/22 01:58:34;;;;;;;28.83;12.80;;;;;;;-143.49;100.00;65027.28;5102996;28;20024;-70
2023/07/22 02:00:59;;;;;;;25.20;13.02;;;;;;;-143.49;100.00;65027.28;5099175;28;20032;-71
2023/07/22 02:03:25;;;;;;;28.55;13.27;;;;;;;-143.49;100.00;65027.28;5095009;28;20487;-71
2023/07/22 02:05:50;;;;;;;25.52;12.93;;;;;;;-143.49;100.00;65027.28;5095024;28;20024;-72
2023/07/22 02:08:15;;;;;;;29.55;13.52;;;;;;;-143.49;100.00;65027.28;5076630;28;20040;-71
2023/07/22 02:10:41;;;;;;;29.05;13.50;;;;;;;-143.49;100.00;65027.28;5094725;28;20020;-71
2023/07/22 02:13:06;;;;;;;29.40;14.20;;;;;;;-143.49;100.00;65027.28;5094858;28;20114;-71
2023/07/22 02:15:35;;;;;;;25.85;13.18;;;;;;;-143.49;100.00;65027.28;5094916;28;20379;-71
2023/07/22 02:18:00;;;;;;;31.25;13.65;;;;;;;-143.49;100.00;65027.28;5094547;28;20062;-72
2023/07/22 02:20:28;;;;;;;25.02;13.10;;;;;;;-143.49;100.00;65027.28;5076278;28;20047;-71
2023/07/22 02:22:54;;;;;;;27.40;13.65;;;;;;;-143.49;100.00;65027.28;5094443;28;20479;-70
2023/07/22 02:25:19;;;;;;;31.17;13.68;;;;;;;-143.49;100.00;65027.28;5076469;28;20036;-70
2023/07/22 02:27:46;;;;;;;29.75;13.57;;;;;;;-143.49;100.00;65027.28;5076204;28;20020;-71
2023/07/22 02:30:11;;;;;;;26.35;13.38;;;;;;;-143.49;100.00;65027.28;5094346;28;20028;-70
2023/07/22 02:32:39;;;;;;;27.60;14.73;;;;;;;-143.49;100.00;65027.28;5094343;28;20023;-70
2023/07/22 02:35:06;;;;;;;26.90;13.23;;;;;;;-143.49;100.00;65027.28;5075855;28;20395;-71
2023/07/22 02:37:32;;;;;;;27.77;14.18;;;;;;;-143.49;100.00;65027.28;5094187;28;20016;-70
2023/07/22 02:39:57;;;;;;;28.45;14.13;;;;;;;-143.49;100.00;65027.28;5094207;28;20035;-71
2023/07/22 02:42:22;;;;;;;31.42;14.07;;;;;;;-143.49;100.00;65027.28;5094209;28;20035;-70
2023/07/22 02:44:48;;;;;;;26.92;14.13;;;;;;;-143.49;100.00;65027.28;5094210;28;20433;-70
2023/07/22 02:47:14;;;;;;;26.77;13.43;;;;;;;-143.49;100.00;65027.28;5094050;28;20416;-71
2023/07/22 02:49:39;;;;;;;26.40;13.80;;;;;;;-143.49;100.00;65027.28;5094041;28;20431;-70
2023/07/22 02:52:06;;;;;;;29.23;14.38;;;;;;;-143.49;100.00;65027.28;5075816;28;20024;-70
2023/07/22 02:54:32;;;;;;;32.85;14.05;;;;;;;-143.49;100.00;65027.28;5093928;28;20016;-70
2023/07/22 02:56:57;;;;;;;27.58;14.30;;;;;;;-143.49;100.00;65027.28;5093958;28;20027;-70
2023/07/22 02:59:24;;;;;;;29.90;13.23;;;;;;;-143.49;100.00;65027.28;5075569;28;20391;-70
2023/07/22 03:01:49;;;;;;;29.27;14.20;;;;;;;-143.49;100.00;65027.28;5094041;28;20036;-70
2023/07/22 03:04:15;;;;;;;29.73;14.10;;;;;;;-143.49;100.00;65027.28;5093766;28;20024;-70
2023/07/22 03:06:42;;;;;;;30.23;14.07;;;;;;;-143.49;100.00;65027.28;5093812;28;20032;-71
2023/07/22 03:09:07;;;;;;;26.73;13.70;;;;;;;-143.49;100.00;65027.28;5092996;28;20047;-70
2023/07/22 03:11:34;;;;;;;26.55;13.65;;;;;;;-143.49;100.00;65027.28;5093973;28;20048;-70
2023/07/22 03:13:59;;;;;;;25.30;13.32;;;;;;;-143.49;100.00;65027.28;5075570;28;20062;-70
2023/07/22 03:16:25;;;;;;;25.95;13.73;;;;;;;-143.49;100.00;65027.28;5093563;28;20020;-71
2023/07/22 03:18:50;;;;;;;30.65;14.02;;;;;;;-143.49;100.00;65027.28;5093392;28;20073;-70
2023/07/22 03:21:15;;;;;;;30.42;14.15;;;;;;;-143.49;100.00;65027.28;5093488;28;20064;-70
2023/07/22 03:23:41;;;;;;;23.65;13.07;;;;;;;-143.49;100.00;65027.28;5093481;28;20387;-70
2023/07/22 03:26:06;;;;;;;26.75;13.00;;;;;;;-143.49;100.00;65027.28;5075339;28;20054;-70
2023/07/22 03:28:31;;;;;;;31.55;13.93;;;;;;;-143.49;100.00;65027.28;5093478;28;20023;-70
2023/07/22 03:30:57;;;;;;;26.55;13.32;;;;;;;-143.49;100.00;65027.28;5075270;28;20024;-70
2023/07/22 03:33:22;;;;;;;28.60;12.95;;;;;;;-143.49;100.00;65027.28;5093277;28;20027;-70
2023/07/22 03:35:47;;;;;;;25.02;12.60;;;;;;;-143.49;100.00;65027.28;5093229;28;20024;-70
2023/07/22 03:38:13;;;;;;;26.33;13.32;;;;;;;-143.49;100.00;65027.28;5093116;28;20054;-70
2023/07/22 03:40:39;;;;;;;25.73;13.02;;;;;;;-143.49;100.00;65027.28;5093226;28;20035;-70
2023/07/22 03:43:04;;;;;;;27.48;13.40;;;;;;;-143.49;100.00;65027.28;5093382;28;20027;-71
2023/07/22 03:45:29;;;;;;;25.95;12.75;;;;;;;-143.49;100.00;65027.28;5075166;28;20038;-70
2023/07/22 03:47:58;;;;;;;26.92;13.07;;;;;;;-143.49;100.00;65027.28;5075199;28;20399;-70
2023/07/22 03:50:24;;;;;;;29.60;13.38;;;;;;;-143.49;100.00;65027.28;5093183;28;20024;-70
2023/07/22 03:52:49;;;;;;;25.73;12.77;;;;;;;-143.49;100.00;65027.28;5093100;28;20020;-70
2023/07/22 03:55:15;;;;;;;24.70;12.55;;;;;;;-143.49;100.00;65027.28;5093225;28;20016;-71
2023/07/22 03:57:40;;;;;;;26.40;11.98;;;;;;;-143.49;100.00;65027.28;5074946;28;20493;-70
2023/07/22 04:00:09;;;;;;;26.73;11.90;;;;;;;-143.49;100.00;65027.28;5074767;28;20056;-70
2023/07/22 04:02:34;;;;;;;24.25;11.15;;;;;;;-143.49;100.00;65027.28;5092977;28;20030;-70
2023/07/22 04:04:59;;;;;;;23.33;11.43;;;;;;;-143.49;100.00;65027.28;5092960;28;20028;-70
2023/07/22 04:07:25;;;;;;;22.50;11.55;;;;;;;-143.49;100.00;65027.28;5093044;28;20028;-70
2023/07/22 04:09:50;;;;;;;24.00;11.93;;;;;;;-143.49;100.00;65027.28;5093005;28;20024;-69
2023/07/22 04:12:16;;;;;;;20.30;10.38;;;;;;;-143.49;100.00;65027.28;5092968;28;20051;-70
2023/07/22 04:14:41;;;;;;;20.67;10.50;;;;;;;-143.49;100.00;65027.28;5074894;28;20039;-70
2023/07/22 04:17:07;;;;;;;23.65;10.90;;;;;;;-143.49;100.00;65027.28;5074744;28;20036;-70
2023/07/22 04:19:32;;;;;;;18.90;10.18;;;;;;;-143.49;100.00;65027.28;5093054;28;20024;-70
2023/07/22 04:21:59;;;;;;;20.17;10.20;;;;;;;-143.49;100.00;65027.28;5096558;28;20024;-70
2023/07/22 04:24:25;;;;;;;19.02;10.30;;;;;;;-143.49;100.00;65027.28;5096841;28;20107;-71
2023/07/22 04:26:50;;;;;;;21.77;9.30;;;;;;;-143.49;100.00;65027.28;5096793;28;20027;-71
2023/07/22 04:29:16;;;;;;;21.60;9.63;;;;;;;-143.49;100.00;65027.28;5078504;28;20016;-70
2023/07/22 04:31:41;;;;;;;18.75;9.05;;;;;;;-143.49;100.00;65027.28;5096718;28;20049;-71
2023/07/22 04:34:06;;;;;;;16.23;9.02;;;;;;;-143.49;100.00;65027.28;5096638;28;20081;-71
2023/07/22 04:36:32;;;;;;;20.52;9.18;;;;;;;-143.49;100.00;65027.28;5097083;28;20057;-71
2023/07/22 04:38:57;;;;;;;14.90;8.70;;;;;;;-143.49;100.00;65027.28;5097014;28;20073;-72
2023/07/22 04:41:23;;;;;;;15.60;8.00;;;;;;;-143.49;100.00;65027.28;5097009;28;20024;-70
2023/07/22 04:43:50;;;;;;;15.57;8.25;;;;;;;-143.49;100.00;65027.28;5097014;28;20107;-71
2023/07/22 04:46:15;;;;;;;18.27;8.35;;;;;;;-143.49;100.00;65027.28;5078672;28;20360;-70
2023/07/22 04:48:41;;;;;;;12.73;7.45;;;;;;;-143.49;100.00;65027.28;5096983;28;20031;-70
2023/07/22 04:51:07;;;;;;;16.27;7.05;;;;;;;-143.49;100.00;65027.28;5099023;28;20024;-69
2023/07/22 04:53:33;;;;;;;14.40;7.55;;;;;;;-143.49;100.00;65027.28;5105613;28;20026;-69
2023/07/22 04:55:58;;;;;;;11.75;6.90;;;;;;;-143.49;100.00;65027.28;5086521;28;20048;-69
2023/07/22 04:58:24;;;;;;;15.20;6.88;;;;;;;-143.49;100.00;65027.28;5104431;28;20444;-69
2023/07/22 05:00:49;;;;;;;15.82;7.40;;;;;;;-143.49;100.00;65027.28;5100568;28;20024;-70
2023/07/22 05:03:15;;;;;;;14.23;7.00;;;;;;;-143.49;100.00;65027.28;5078662;28;20541;-71
2023/07/22 05:05:41;;;;;;;15.05;7.78;;;;;;;-143.49;100.00;65027.28;5096544;28;20077;-71
2023/07/22 05:08:08;;;;;;;13.77;7.35;;;;;;;-143.49;100.00;65027.28;5088426;28;20044;-70
2023/07/22 05:10:34;;;;;;;14.63;7.50;;;;;;;-143.49;100.00;65027.28;5076160;28;20021;-71
2023/07/22 05:12:59;;;;;;;18.90;7.82;;;;;;;-143.49;100.00;65027.28;5076059;28;20036;-71
2023/07/22 05:15:25;;;;;;;16.48;8.35;;;;;;;-143.49;100.00;65027.28;5076095;28;20372;-71
2023/07/22 05:17:50;;;;;;;16.17;8.45;;;;;;;-143.49;100.00;65027.28;5076294;28;20329;-71
2023/07/22 05:20:15;;;;;;;16.50;7.93;;;;;;;-143.49;100.00;65027.28;5075970;28;20028;-71
2023/07/22 05:22:41;;;;;;;18.73;8.57;;;;;;;-143.49;100.00;65027.28;5076160;28;20025;-71
2023/07/22 05:25:08;;;;;;;19.25;8.23;;;;;;;-143.49;100.00;65027.28;5076221;28;20096;-70
2023/07/22 05:27:33;;;;;;;20.45;9.23;;;;;;;-143.49;100.00;65027.28;5075859;28;20456;-70
2023/07/22 05:29:59;;;;;;;19.67;8.90;;;;;;;-143.49;100.00;65027.28;5075991;28;20027;-70
2023/07/22 05:32:24;;;;;;;23.85;9.80;;;;;;;-143.49;100.00;65027.28;5057233;28;20107;-70
2023/07/22 05:34:49;;;;;;;19.92;9.45;;;;;;;-143.49;100.00;65027.28;5075789;28;20491;-70
2023/07/22 05:37:15;;;;;;;23.85;9.95;;;;;;;-143.49;100.00;65027.28;5075607;28;20025;-70
2023/07/22 05:39:40;;;;;;;24.67;10.18;;;;;;;-143.49;100.00;65027.28;5075846;28;20024;-71
2023/07/22 05:42:06;;;;;;;19.35;9.98;;;;;;;-143.49;100.00;65027.28;5075884;28;20016;-71
2023/07/22 05:44:31;;;;;;;19.55;10.18;;;;;;;-143.49;100.00;65027.28;5076158;28;20100;-70
2023/07/22 05:46:57;;;;;;;25.70;10.10;;;;;;;-143.49;100.00;65027.28;5075750;28;20108;-71
2023/07/22 05:49:22;;;;;;;21.17;10.18;;;;;;;-143.49;100.00;65027.28;5075649;28;20024;-71
2023/07/22 05:51:47;;;;;;;22.45;10.60;;;;;;;-143.49;100.00;65027.28;5075368;28;20024;-71
2023/07/22 05:54:13;;;;;;;23.23;10.35;;;;;;;-143.49;100.00;65027.28;5075417;28;20024;-70
2023/07/22 05:56:38;;;;;;;22.63;11.25;;;;;;;-143.49;100.00;65027.28;5057543;28;20337;-71
2023/07/22 05:59:04;;;;;;;21.45;11.10;;;;;;;-143.49;100.00;65027.28;5057218;28;20020;-71
2023/07/22 06:01:29;;;;;;;25.40;12.05;;;;;;;-143.49;100.00;65027.28;5057311;28;20526;-71
2023/07/22 06:03:55;;;;;;;29.23;12.57;;;;;;;-143.49;100.00;65027.28;5057257;28;20036;-70
2023/07/22 06:06:20;;;;;;;28.65;12.38;;;;;;;-143.49;100.00;65027.28;5075196;28;20036;-71
2023/07/22 06:08:45;;;;;;;27.42;11.95;;;;;;;-143.49;100.00;65027.28;5088011;28;20051;-70
2023/07/22 06:11:10;;;;;;;29.27;12.15;;;;;;;-143.49;100.00;65027.28;5095540;28;20051;-72
2023/07/22 06:13:36;;;;;;;29.83;12.32;;;;;;;-143.49;100.00;65027.28;5095250;28;20462;-71
2023/07/22 06:16:02;;;;;;;28.63;12.05;;;;;;;-143.49;100.00;65027.28;5095186;28;20107;-71
2023/07/22 06:18:28;;;;;;;27.85;12.18;;;;;;;-143.49;100.00;65027.28;5095054;28;20429;-71
2023/07/22 06:20:53;;;;;;;29.48;12.90;;;;;;;-143.49;100.00;65027.28;5095034;28;20023;-71
2023/07/22 06:23:18;;;;;;;26.15;13.35;;;;;;;-143.49;100.00;65027.28;5076901;28;20034;-70
2023/07/22 06:25:43;;;;;;;32.10;12.48;;;;;;;-143.49;100.00;65027.28;5077078;28;20111;-70
2023/07/22 06:28:09;;;;;;;24.10;12.10;;;;;;;-143.49;100.00;65027.28;5076724;28;20024;-70
2023/07/22 06:30:34;;;;;;;25.40;13.10;;;;;;;-143.49;100.00;65027.28;5094709;28;20059;-70
2023/07/22 06:33:00;;;;;;;24.70;11.98;;;;;;;-143.49;100.00;65027.28;5076657;28;20028;-70
2023/07/22 06:35:25;;;;;;;26.50;12.88;;;;;;;-143.49;100.00;65027.28;5094747;28;20024;-70
2023/07/22 06:37:50;;;;;;;27.02;13.00;;;;;;;-143.49;100.00;65027.28;5076748;28;20024;-70
2023/07/22 06:40:17;;;;;;;28.33;13.20;;;;;;;-143.49;100.00;65027.28;5094257;28;20495;-70
2023/07/22 06:42:42;;;;;;;27.38;13.32;;;;;;;-143.49;100.00;65027.28;5076443;28;20388;-70
2023/07/22 06:45:08;;;;;;;31.10;13.15;;;;;;;-143.49;100.00;65027.28;5093644;28;20026;-70
2023/07/22 06:47:34;;;;;;;30.90;13.70;;;;;;;-143.49;100.00;65027.28;5094736;28;20384;-70
2023/07/22 06:50:00;;;;;;;28.73;13.18;;;;;;;-143.49;100.00;65027.28;5076658;28;20034;-70
2023/07/22 06:52:25;;;;;;;30.10;13.10;;;;;;;-143.49;100.00;65027.28;5076438;28;20108;-71
2023/07/22 06:54:50;;;;;;;27.08;12.73;;;;;;;-143.49;100.00;65027.28;5076302;28;20114;-70
2023/07/22 06:57:16;;;;;;;31.70;13.10;;;;;;;-143.49;100.00;65027.28;5094472;28;20028;-70
2023/07/22 06:59:41;;;;;;;30.38;12.85;;;;;;;-143.49;100.00;65027.28;5076120;28;20062;-70
2023/07/22 07:02:07;;;;;;;30.38;13.98;;;;;;;-143.49;100.00;65027.28;5094239;28;20056;-70
2023/07/22 07:04:32;;;;;;;27.10;13.07;;;;;;;-143.49;100.00;65027.28;5093856;28;20035;-71
2023/07/22 07:06:59;;;;;;;31.70;12.77;;;;;;;-143.49;100.00;65027.28;5093907;28;20024;-70
2023/07/22 07:09:25;;;;;;;29.67;13.65;;;;;;;-143.49;100.00;65027.28;5094098;28;20044;-70
2023/07/22 07:11:50;;;;;;;27.70;12.75;;;;;;;-143.49;100.00;65027.28;5093837;28;20039;-71
2023/07/22 07:14:15;;;;;;;21.55;12.10;;;;;;;-143.49;100.00;65027.28;5093872;28;20475;-71
2023/07/22 07:16:41;;;;;;;26.45;11.98;;;;;;;-143.49;100.00;65027.28;5076079;28;20023;-71
2023/07/22 07:19:06;;;;;;;27.90;12.77;;;;;;;-143.49;100.00;65027.28;5093485;28;20112;-71
2023/07/22 07:21:31;;;;;;;26.25;12.75;;;;;;;-143.49;100.00;65027.28;5093699;28;20024;-71
2023/07/22 07:23:57;;;;;;;25.95;12.48;;;;;;;-143.49;100.00;65027.28;5075911;28;20035;-71
2023/07/22 07:26:22;;;;;;;28.23;13.02;;;;;;;-143.49;100.00;65027.28;5094744;28;20077;-70
2023/07/22 07:28:50;;;;;;;26.63;12.90;;;;;;;-143.49;100.00;65027.28;5094491;28;20039;-70
2023/07/22 07:31:16;;;;;;;29.10;12.68;;;;;;;-143.49;100.00;65027.28;5094067;28;20020;-70
2023/07/22 07:33:41;;;;;;;22.45;11.57;;;;;;;-143.49;100.00;65027.28;5093901;28;20127;-70
2023/07/22 07:36:07;;;;;;;23.48;12.27;;;;;;;-143.49;100.00;65027.28;5075585;28;20024;-70
2023/07/22 07:38:32;;;;;;;25.75;12.50;;;;;;;-143.49;100.00;65027.28;5093787;28;20063;-70
2023/07/22 07:41:03;;;;;;;25.77;11.95;;;;;;;-143.49;100.00;65027.28;5093994;28;20073;-71
2023/07/22 07:43:28;;;;;;;24.48;12.48;;;;;;;-143.49;100.00;65027.28;5075913;28;20471;-71
2023/07/22 07:46:17;;;;;;;26.92;12.20;;;;;;;-143.49;100.00;65027.28;5093758;28;20100;-71
2023/07/22 07:48:50;;;;;;;22.30;11.88;;;;;;;-143.49;100.00;65027.28;5094108;28;20371;-71
2023/07/22 07:51:16;;;;;;;;;;;;;;;-143.49;100.00;65027.28;5094399;28;20073;-70
2023/07/22 07:53:43;;;;;;;23.33;11.52;;;;;;;-143.49;100.00;65027.28;5093769;28;19961;-71
2023/07/22 07:56:09;;;;;;;26.17;11.73;;;;;;;-143.49;100.00;65027.28;5078127;28;20127;-70
2023/07/22 07:58:36;;;;;;;23.30;11.07;;;;;;;-143.49;100.00;65027.28;5097980;28;20067;-70
2023/07/22 08:01:01;;;;;;;25.67;11.40;;;;;;;-143.49;100.00;65027.28;5097780;28;20051;-70
2023/07/22 08:03:26;;;;;;;25.25;11.32;;;;;;;-143.49;100.00;65027.28;5097679;28;20463;-71
2023/07/22 08:05:52;;;;;;;24.73;11.23;;;;;;;-143.49;100.00;65027.28;5079505;28;20024;-71
2023/07/22 08:08:17;;;;;;;20.55;10.63;;;;;;;-143.49;100.00;65027.28;5079172;28;20060;-71
2023/07/22 08:10:44;;;;;;;18.67;11.13;;;;;;;-143.49;100.00;65027.28;5079473;28;20538;-71
2023/07/22 08:13:10;;;;;;;24.60;11.57;;;;;;;-143.49;100.00;65027.28;5079312;28;20024;-71
2023/07/22 08:15:35;;;;;;;22.42;10.90;;;;;;;-143.49;100.00;65027.28;5097541;28;20031;-71
2023/07/22 08:18:01;;;;;;;24.80;10.77;;;;;;;-143.49;100.00;65027.28;5097392;28;20020;-71
2023/07/22 08:20:26;;;;;;;21.08;11.00;;;;;;;-143.49;100.00;65027.28;5097525;28;20341;-71
2023/07/22 08:22:52;;;;;;;22.92;10.85;;;;;;;-143.49;100.00;65027.28;5097305;28;20034;-71
2023/07/22 08:25:17;;;;;;;17.50;10.35;;;;;;;-143.49;100.00;65027.28;5097483;28;20032;-71
2023/07/22 08:27:42;;;;;;;18.13;10.30;;;;;;;-143.49;100.00;65027.28;5097244;28;20428;-70
2023/07/22 08:30:08;;;;;;;20.13;10.07;;;;;;;-143.49;100.00;65027.28;5079119;28;20018;-71
2023/07/22 08:32:33;;;;;;;19.92;10.07;;;;;;;-143.49;100.00;65027.28;5095756;28;20028;-72
2023/07/22 08:34:59;;;;;;;26.60;10.35;;;;;;;-143.49;100.00;65027.28;5095789;28;20028;-71
2023/07/22 08:37:24;;;;;;;25.52;9.60;;;;;;;-143.49;100.00;65027.28;5077345;28;20024;-71
2023/07/22 08:39:49;;;;;;;17.40;9.05;;;;;;;-143.49;100.00;65027.28;5095608;28;20020;-71
2023/07/22 08:42:19;;;;;;;19.00;9.95;;;;;;;-143.49;100.00;65027.28;5095558;28;20353;-70
2023/07/22 08:44:48;;;;;;;15.35;9.90;;;;;;;-143.49;100.00;65027.28;5095471;28;20676;-71
2023/07/22 08:47:16;;;;;;;17.27;10.07;;;;;;;-143.49;100.00;65027.28;5095952;28;20032;-72
2023/07/22 08:49:50;;;;;;;18.73;10.35;;;;;;;-143.49;100.00;65027.28;5096221;28;20016;-72
2023/07/22 08:52:17;;;;;;;22.50;10.50;;;;;;;-143.49;100.00;65027.28;5096751;28;20020;-72
2023/07/22 08:54:42;;;;;;;20.13;9.82;;;;;;;-143.49;100.00;65027.28;5096891;28;20023;-71
2023/07/22 08:57:09;;;;;;;15.85;9.23;;;;;;;-143.49;100.00;65027.28;5077832;28;20039;-71
2023/07/22 08:59:35;;;;;;;15.57;9.77;;;;;;;-143.49;100.00;65027.28;5078163;28;20032;-72
2023/07/22 09:02:01;;;;;;;16.52;10.13;;;;;;;-143.49;100.00;65027.28;5096659;28;20031;-70
2023/07/22 09:04:26;;;;;;;21.25;9.90;;;;;;;-143.49;100.00;65027.28;5096616;28;20024;-70
2023/07/22 09:06:53;;;;;;;15.57;9.13;;;;;;;-143.49;100.00;65027.28;5095445;28;20035;-71
2023/07/22 09:09:19;;;;;;;16.73;10.07;;;;;;;-143.49;100.00;65027.28;5096406;28;20040;-71
2023/07/22 09:11:45;;;;;;;19.13;9.88;;;;;;;-143.49;100.00;65027.28;5096441;28;20468;-70
2023/07/22 09:14:11;;;;;;;17.70;10.18;;;;;;;-143.49;100.00;65027.28;5077961;28;20024;-72
2023/07/22 09:16:37;;;;;;;18.90;9.68;;;;;;;-143.49;100.00;65027.28;5096568;28;20028;-70
2023/07/22 09:19:04;;;;;;;16.40;8.63;;;;;;;-143.49;100.00;65027.28;5096078;28;20020;-70
2023/07/22 09:21:29;;;;;;;14.77;8.50;;;;;;;-143.49;100.00;65027.28;5096230;28;20031;-71
2023/07/22 09:23:55;;;;;;;15.80;9.50;;;;;;;-143.49;100.00;65027.28;5096225;28;20359;-71
2023/07/22 09:26:20;;;;;;;13.40;9.18;;;;;;;-143.49;100.00;65027.28;5095878;28;20395;-71
2023/07/22 09:28:57;;;;;;;17.33;8.77;;;;;;;-143.49;100.00;65027.28;5095853;28;20020;-72
2023/07/22 09:31:25;;;;;;;20.33;8.57;;;;;;;-143.49;100.00;65027.28;5096112;28;20023;-72
2023/07/22 09:33:51;;;;;;;12.20;8.02;;;;;;;-143.49;100.00;65027.28;5096035;28;20070;-73
2023/07/22 09:36:17;;;;;;;20.42;8.43;;;;;;;-143.49;100.00;65027.28;5095864;28;20494;-72
2023/07/22 09:38:42;;;;;;;12.82;7.88;;;;;;;-143.49;100.00;65027.28;5095816;28;20024;-71
2023/07/22 09:41:08;;;;;;;19.38;8.10;;;;;;;-143.49;100.00;65027.28;5095389;28;20020;-72
2023/07/22 09:43:38;;;;;;;12.77;7.20;;;;;;;-143.49;100.00;65027.28;5095898;28;20016;-71
2023/07/22 09:46:10;;;;;;;13.80;7.20;;;;;;;-143.49;100.00;65027.28;5095621;28;20367;-72
2023/07/22 09:48:40;;;;;;;17.50;7.15;;;;;;;-143.49;100.00;65027.28;5095968;28;20015;-71
2023/07/22 09:51:06;;;;;;;15.93;6.50;;;;;;;-143.49;100.00;65027.28;5095519;28;20066;-70
2023/07/22 09:53:31;;;;;;;13.98;6.05;;;;;;;-143.49;100.00;65027.28;5077750;28;20056;-71
2023/07/22 09:56:03;;;;;;;13.60;6.50;;;;;;;-143.49;100.00;65027.28;5096033;28;20297;-71
2023/07/22 09:58:31;;;;;;;13.60;6.00;;;;;;;-143.49;100.00;65027.28;5077288;28;20482;-72
2023/07/22 10:00:57;;;;;;;13.57;5.57;;;;;;;-143.49;100.00;65027.28;5095609;28;20107;-70
2023/07/22 10:03:28;;;;;;;10.75;5.47;;;;;;;-143.49;100.00;65027.28;5095262;28;20066;-72
2023/07/22 10:05:53;;;;;;;12.70;5.32;;;;;;;-143.49;100.00;65027.28;5095241;28;20020;-71
2023/07/22 10:08:21;;;;;;;17.13;5.57;;;;;;;-143.49;100.00;65027.28;5095413;28;20047;-71
2023/07/22 10:10:51;;;;;;;14.27;5.10;;;;;;;-143.49;100.00;65027.28;5077425;28;20535;-71
2023/07/22 10:13:16;;;;;;;12.40;5.40;;;;;;;-143.49;100.00;65027.28;5098708;28;20059;-71
2023/07/22 10:15:42;;;;;;;14.02;5.75;;;;;;;-143.49;100.00;65027.28;5095044;28;20055;-73
2023/07/22 10:18:10;;;;;;;13.52;6.32;;;;;;;-143.49;100.00;65027.28;5094814;28;20413;-70
2023/07/22 10:20:36;;;;;;;11.32;5.35;;;;;;;-143.49;100.00;65027.28;5093614;28;20075;-71
2023/07/22 10:23:03;;;;;;;10.80;5.53;;;;;;;-143.49;100.00;65027.28;5074738;28;20031;-69
2023/07/22 10:25:29;;;;;;;12.48;5.30;;;;;;;-143.49;100.00;65027.28;5092574;28;20016;-69
2023/07/22 10:27:55;;;;;;;13.20;5.68;;;;;;;-143.49;100.00;65027.28;5093042;28;20028;-69
2023/07/22 10:30:20;;;;;;;13.68;5.30;;;;;;;-143.49;100.00;65027.28;5082815;28;20048;-69
2023/07/22 10:32:48;;;;;;;11.98;5.32;;;;;;;-143.49;100.00;65027.28;5101595;28;20032;-69
2023/07/22 10:35:31;;;;;;;10.13;5.18;;;;;;;-143.49;100.00;65027.28;5102360;28;20032;-69
2023/07/22 10:38:08;;;;;;;9.32;5.03;;;;;;;-143.49;100.00;65027.28;5076118;28;20047;-71
2023/07/22 10:40:53;;;;;;;10.98;4.60;;;;;;;-143.49;100.00;65027.28;5094641;28;20080;-71
2023/07/22 10:43:41;;;;;;;8.30;4.43;;;;;;;-143.49;100.00;65027.28;5076207;28;20024;-71
2023/07/22 10:46:12;;;;;;;11.05;4.07;;;;;;;-143.49;100.00;65027.28;5094603;28;20020;-71
2023/07/22 10:48:39;;;;;;;10.82;4.30;;;;;;;-143.49;100.00;65027.28;5081851;28;20063;-70
2023/07/22 10:51:09;;;;;;;7.65;3.65;;;;;;;-143.49;100.00;65027.28;5097690;28;20032;-71
2023/07/22 10:53:46;;;;;;;6.22;3.50;;;;;;;-143.49;100.00;65027.28;5094370;28;20545;-70